sensor_id;sensor_type;location;lat;lon;timestamp;pressure;altitude;pressure_sealevel;temperature;humidity
36748;BME280;22716;51.556;5.080;2022-12-29T00:01:22;99359.16;;;11.21;100.00
36748;BME280;22716;51.556;5.080;2022-12-29T00:03:51;99360.72;;;11.25;100.00
36748;BME280;22716;51.556;5.080;2022-12-29T00:06:20;99351.16;;;11.24;100.00
36748;BME280;22716;51.556;5.080;2022-12-29T00:08:48;99361.69;;;11.22;100.00
36748;BME280;22716;51.556;5.080;2022-12-29T00:11:22;99351.28;;;11.21;100.00
36748;BME280;22716;51.556;5.080;2022-12-29T00:13:54;99353.16;;;11.17;100.00
36748;BME280;22716;51.556;5.080;2022-12-29T00:16:37;99353.25;;;11.14;100.00
36748;BME280;22716;51.556;5.080;2022-12-29T00:19:06;99342.25;;;11.05;100.00
36748;BME280;22716;51.556;5.080;2022-12-29T00:21:55;99338.00;;;11.01;100.00
36748;BME280;22716;51.556;5.080;2022-12-29T00:24:45;99332.19;;;10.93;100.00
36748;BME280;22716;51.556;5.080;2022-12-29T00:27:29;99335.97;;;10.86;100.00
36748;BME280;22716;51.556;5.080;2022-12-29T00:30:13;99317.19;;;10.73;100.00
36748;BME280;22716;51.556;5.080;2022-12-29T00:32:54;99329.59;;;10.68;100.00
36748;BME280;22716;51.556;5.080;2022-12-29T00:35:38;99314.00;;;10.65;100.00
36748;BME280;22716;51.556;5.080;2022-12-29T00:38:08;99311.38;;;10.65;100.00
36748;BME280;22716;51.556;5.080;2022-12-29T00:40:51;99312.25;;;10.64;100.00
36748;BME280;22716;51.556;5.080;2022-12-29T00:43:35;99310.50;;;10.64;100.00
36748;BME280;22716;51.556;5.080;2022-12-29T00:46:17;99305.47;;;10.58;100.00
36748;BME280;22716;51.556;5.080;2022-12-29T00:48:46;99297.75;;;10.54;100.00
36748;BME280;22716;51.556;5.080;2022-12-29T00:51:27;99304.84;;;10.52;100.00
36748;BME280;22716;51.556;5.080;2022-12-29T00:53:56;99288.38;;;10.48;100.00
36748;BME280;22716;51.556;5.080;2022-12-29T00:56:25;99288.38;;;10.48;100.00
36748;BME280;22716;51.556;5.080;2022-12-29T00:59:00;99286.56;;;10.50;100.00
36748;BME280;22716;51.556;5.080;2022-12-29T01:01:28;99284.06;;;10.47;100.00
36748;BME280;22716;51.556;5.080;2022-12-29T01:03:57;99277.00;;;10.49;100.00
36748;BME280;22716;51.556;5.080;2022-12-29T01:06:26;99275.06;;;10.54;100.00
36748;BME280;22716;51.556;5.080;2022-12-29T01:08:54;99272.44;;;10.54;100.00
36748;BME280;22716;51.556;5.080;2022-12-29T01:11:35;99280.91;;;10.62;100.00
36748;BME280;22716;51.556;5.080;2022-12-29T01:14:07;99282.50;;;10.66;100.00
36748;BME280;22716;51.556;5.080;2022-12-29T01:16:36;99276.25;;;10.71;100.00
36748;BME280;22716;51.556;5.080;2022-12-29T01:19:05;99271.69;;;10.76;100.00
36748;BME280;22716;51.556;5.080;2022-12-29T01:21:34;99265.47;;;10.78;100.00
36748;BME280;22716;51.556;5.080;2022-12-29T01:24:04;99276.81;;;10.79;100.00
36748;BME280;22716;51.556;5.080;2022-12-29T01:26:33;99264.34;;;10.85;100.00
36748;BME280;22716;51.556;5.080;2022-12-29T01:29:01;99250.28;;;10.88;100.00
36748;BME280;22716;51.556;5.080;2022-12-29T01:31:33;99258.81;;;10.93;100.00
36748;BME280;22716;51.556;5.080;2022-12-29T01:34:02;99264.88;;;10.95;100.00
36748;BME280;22716;51.556;5.080;2022-12-29T01:36:31;99237.72;;;10.97;100.00
36748;BME280;22716;51.556;5.080;2022-12-29T01:39:01;99250.59;;;11.03;100.00
36748;BME280;22716;51.556;5.080;2022-12-29T01:41:30;99258.22;;;11.09;100.00
36748;BME280;22716;51.556;5.080;2022-12-29T01:43:59;99265.00;;;11.15;100.00
36748;BME280;22716;51.556;5.080;2022-12-29T01:46:34;99239.91;;;11.08;100.00
36748;BME280;22716;51.556;5.080;2022-12-29T01:49:12;99259.44;;;11.22;100.00
36748;BME280;22716;51.556;5.080;2022-12-29T01:51:45;99263.59;;;11.28;100.00
36748;BME280;22716;51.556;5.080;2022-12-29T01:54:18;99257.47;;;11.29;100.00
36748;BME280;22716;51.556;5.080;2022-12-29T01:56:51;99255.56;;;11.33;100.00
36748;BME280;22716;51.556;5.080;2022-12-29T01:59:22;99239.00;;;11.32;100.00
36748;BME280;22716;51.556;5.080;2022-12-29T02:01:55;99251.91;;;11.37;100.00
36748;BME280;22716;51.556;5.080;2022-12-29T02:04:24;99249.28;;;11.37;100.00
36748;BME280;22716;51.556;5.080;2022-12-29T02:06:58;99252.66;;;11.40;100.00
36748;BME280;22716;51.556;5.080;2022-12-29T02:09:28;99256.16;;;11.39;100.00
36748;BME280;22716;51.556;5.080;2022-12-29T02:11:58;99271.75;;;11.44;100.00
36748;BME280;22716;51.556;5.080;2022-12-29T02:14:28;99251.63;;;11.44;100.00
36748;BME280;22716;51.556;5.080;2022-12-29T02:17:07;99260.34;;;11.45;100.00
36748;BME280;22716;51.556;5.080;2022-12-29T02:20:14;99254.28;;;11.43;100.00
36748;BME280;22716;51.556;5.080;2022-12-29T02:23:03;99260.34;;;11.45;100.00
36748;BME280;22716;51.556;5.080;2022-12-29T02:25:44;99264.78;;;11.43;100.00
36748;BME280;22716;51.556;5.080;2022-12-29T02:28:39;99243.00;;;11.41;100.00
36748;BME280;22716;51.556;5.080;2022-12-29T02:31:23;99241.19;;;11.43;100.00
36748;BME280;22716;51.556;5.080;2022-12-29T02:34:03;99253.56;;;11.39;100.00
36748;BME280;22716;51.556;5.080;2022-12-29T02:36:42;99243.00;;;11.41;100.00
36748;BME280;22716;51.556;5.080;2022-12-29T02:39:20;99236.00;;;11.41;100.00
36748;BME280;22716;51.556;5.080;2022-12-29T02:41:58;99251.91;;;11.37;100.00
36748;BME280;22716;51.556;5.080;2022-12-29T02:44:34;99238.75;;;11.38;100.00
36748;BME280;22716;51.556;5.080;2022-12-29T02:47:13;99251.91;;;11.37;100.00
36748;BME280;22716;51.556;5.080;2022-12-29T02:49:48;99237.09;;;11.36;100.00
36748;BME280;22716;51.556;5.080;2022-12-29T02:52:23;99247.72;;;11.33;100.00
36748;BME280;22716;51.556;5.080;2022-12-29T02:54:54;99227.13;;;11.22;100.00
36748;BME280;22716;51.556;5.080;2022-12-29T02:57:30;99243.44;;;11.30;100.00
36748;BME280;22716;51.556;5.080;2022-12-29T03:00:03;99235.81;;;11.24;100.00
36748;BME280;22716;51.556;5.080;2022-12-29T03:02:54;99232.34;;;11.23;100.00
36748;BME280;22716;51.556;5.080;2022-12-29T03:05:39;99250.84;;;11.19;100.00
36748;BME280;22716;51.556;5.080;2022-12-29T03:08:16;99242.31;;;11.14;100.00
36748;BME280;22716;51.556;5.080;2022-12-29T03:10:52;99240.47;;;11.16;100.00
36748;BME280;22716;51.556;5.080;2022-12-29T03:13:28;99240.69;;;11.10;100.00
36748;BME280;22716;51.556;5.080;2022-12-29T03:16:20;99227.66;;;11.08;100.00
36748;BME280;22716;51.556;5.080;2022-12-29T03:18:57;99234.66;;;11.08;100.00
36748;BME280;22716;51.556;5.080;2022-12-29T03:21:32;99238.38;;;11.02;100.00
36748;BME280;22716;51.556;5.080;2022-12-29T03:24:15;99244.47;;;11.03;100.00
36748;BME280;22716;51.556;5.080;2022-12-29T03:26:47;99228.00;;;10.99;100.00
36748;BME280;22716;51.556;5.080;2022-12-29T03:29:18;99239.47;;;10.97;100.00
36748;BME280;22716;51.556;5.080;2022-12-29T03:31:50;99239.50;;;10.95;100.00
36748;BME280;22716;51.556;5.080;2022-12-29T03:34:24;99241.22;;;10.96;100.00
36748;BME280;22716;51.556;5.080;2022-12-29T03:36:57;99239.63;;;10.92;100.00
36748;BME280;22716;51.556;5.080;2022-12-29T03:39:27;99238.03;;;10.88;100.00
36748;BME280;22716;51.556;5.080;2022-12-29T03:42:01;99251.81;;;10.93;100.00
36748;BME280;22716;51.556;5.080;2022-12-29T03:44:32;99234.44;;;10.91;100.00
36748;BME280;22716;51.556;5.080;2022-12-29T03:47:02;99232.84;;;10.87;100.00
36748;BME280;22716;51.556;5.080;2022-12-29T03:49:34;99237.97;;;10.90;100.00
36748;BME280;22716;51.556;5.080;2022-12-29T03:52:03;99238.91;;;10.89;100.00
36748;BME280;22716;51.556;5.080;2022-12-29T03:54:32;99246.75;;;10.89;100.00
36748;BME280;22716;51.556;5.080;2022-12-29T03:57:01;99223.34;;;10.84;100.00
36748;BME280;22716;51.556;5.080;2022-12-29T03:59:30;99214.72;;;10.81;100.00
36748;BME280;22716;51.556;5.080;2022-12-29T04:01:58;99228.44;;;10.89;100.00
36748;BME280;22716;51.556;5.080;2022-12-29T04:04:27;99238.03;;;10.88;100.00
36748;BME280;22716;51.556;5.080;2022-12-29T04:06:58;99242.44;;;10.88;100.00
36748;BME280;22716;51.556;5.080;2022-12-29T04:09:27;99234.69;;;10.85;100.00
36748;BME280;22716;51.556;5.080;2022-12-29T04:11:57;99245.16;;;10.85;100.00
36748;BME280;22716;51.556;5.080;2022-12-29T04:14:25;99246.88;;;10.86;100.00
36748;BME280;22716;51.556;5.080;2022-12-29T04:16:54;99243.50;;;10.82;100.00
36748;BME280;22716;51.556;5.080;2022-12-29T04:19:23;99247.00;;;10.83;100.00
36748;BME280;22716;51.556;5.080;2022-12-29T04:21:51;99245.19;;;10.83;100.00
36748;BME280;22716;51.556;5.080;2022-12-29T04:24:23;99247.00;;;10.83;100.00
36748;BME280;22716;51.556;5.080;2022-12-29T04:26:52;99247.97;;;10.80;100.00
36748;BME280;22716;51.556;5.080;2022-12-29T04:29:21;99253.91;;;10.84;100.00
36748;BME280;22716;51.556;5.080;2022-12-29T04:31:50;99261.78;;;10.84;100.00
36748;BME280;22716;51.556;5.080;2022-12-29T04:34:18;99260.09;;;10.83;100.00
36748;BME280;22716;51.556;5.080;2022-12-29T04:36:47;99269.84;;;10.78;100.00
36748;BME280;22716;51.556;5.080;2022-12-29T04:39:16;99275.97;;;10.78;100.00
36748;BME280;22716;51.556;5.080;2022-12-29T04:41:47;99263.19;;;10.69;100.00
36748;BME280;22716;51.556;5.080;2022-12-29T04:44:16;99288.31;;;10.75;100.00
36748;BME280;22716;51.556;5.080;2022-12-29T04:46:44;99288.38;;;10.73;100.00
36748;BME280;22716;51.556;5.080;2022-12-29T04:49:13;99292.75;;;10.73;100.00
36748;BME280;22716;51.556;5.080;2022-12-29T04:51:42;99292.94;;;10.68;100.00
36748;BME280;22716;51.556;5.080;2022-12-29T04:54:11;99285.41;;;10.59;100.00
36748;BME280;22716;51.556;5.080;2022-12-29T04:56:40;99284.53;;;10.58;100.00
36748;BME280;22716;51.556;5.080;2022-12-29T04:59:11;99300.25;;;10.58;100.00
36748;BME280;22716;51.556;5.080;2022-12-29T05:01:40;99303.75;;;10.57;100.00
36748;BME280;22716;51.556;5.080;2022-12-29T05:04:09;99304.69;;;10.56;100.00
36748;BME280;22716;51.556;5.080;2022-12-29T05:06:37;99312.44;;;10.59;100.00
36748;BME280;22716;51.556;5.080;2022-12-29T05:09:06;99303.75;;;10.57;100.00
36748;BME280;22716;51.556;5.080;2022-12-29T05:11:35;99318.56;;;10.58;100.00
36748;BME280;22716;51.556;5.080;2022-12-29T05:14:03;99313.47;;;10.54;100.00
36748;BME280;22716;51.556;5.080;2022-12-29T05:16:35;99325.63;;;10.56;100.00
36748;BME280;22716;51.556;5.080;2022-12-29T05:19:04;99307.41;;;10.53;100.00
36748;BME280;22716;51.556;5.080;2022-12-29T05:21:32;99324.81;;;10.54;100.00
36748;BME280;22716;51.556;5.080;2022-12-29T05:24:01;99320.66;;;10.49;100.00
36748;BME280;22716;51.556;5.080;2022-12-29T05:26:30;99323.16;;;10.52;100.00
36748;BME280;22716;51.556;5.080;2022-12-29T05:28:58;99334.59;;;10.49;100.00
36748;BME280;22716;51.556;5.080;2022-12-29T05:31:28;99320.66;;;10.49;100.00
36748;BME280;22716;51.556;5.080;2022-12-29T05:33:59;99316.66;;;10.39;100.00
36748;BME280;22716;51.556;5.080;2022-12-29T05:36:28;99337.22;;;10.49;100.00
36748;BME280;22716;51.556;5.080;2022-12-29T05:38:56;99339.06;;;10.46;100.00
36748;BME280;22716;51.556;5.080;2022-12-29T05:41:25;99343.34;;;10.48;100.00
36748;BME280;22716;51.556;5.080;2022-12-29T05:43:54;99355.47;;;10.51;100.00
36748;BME280;22716;51.556;5.080;2022-12-29T05:46:22;99352.88;;;10.51;100.00
36748;BME280;22716;51.556;5.080;2022-12-29T05:48:52;99345.97;;;10.48;100.00
36748;BME280;22716;51.556;5.080;2022-12-29T05:51:23;99339.94;;;10.46;100.00
36748;BME280;22716;51.556;5.080;2022-12-29T05:53:52;99348.69;;;10.45;100.00
36748;BME280;22716;51.556;5.080;2022-12-29T05:56:21;99347.69;;;10.49;100.00
36748;BME280;22716;51.556;5.080;2022-12-29T05:58:49;99363.34;;;10.51;100.00
36748;BME280;22716;51.556;5.080;2022-12-29T06:01:18;99359.81;;;10.52;100.00
36748;BME280;22716;51.556;5.080;2022-12-29T06:03:47;99354.59;;;10.52;100.00
36748;BME280;22716;51.556;5.080;2022-12-29T06:06:15;99346.84;;;10.49;100.00
36748;BME280;22716;51.556;5.080;2022-12-29T06:08:47;99359.88;;;10.50;100.00
36748;BME280;22716;51.556;5.080;2022-12-29T06:11:15;99341.66;;;10.47;100.00
36748;BME280;22716;51.556;5.080;2022-12-29T06:13:44;99334.81;;;10.43;100.00
36748;BME280;22716;51.556;5.080;2022-12-29T06:16:13;99352.13;;;10.47;100.00
36748;BME280;22716;51.556;5.080;2022-12-29T06:18:41;99357.22;;;10.52;100.00
36748;BME280;22716;51.556;5.080;2022-12-29T06:21:10;99338.97;;;10.49;100.00
36748;BME280;22716;51.556;5.080;2022-12-29T06:23:39;99339.84;;;10.49;100.00
36748;BME280;22716;51.556;5.080;2022-12-29T06:26:10;99342.47;;;10.49;100.00
36748;BME280;22716;51.556;5.080;2022-12-29T06:28:39;99335.59;;;10.45;100.00
36748;BME280;22716;51.556;5.080;2022-12-29T06:31:09;99345.25;;;10.45;100.00
36748;BME280;22716;51.556;5.080;2022-12-29T06:33:38;99351.22;;;10.48;100.00
36748;BME280;22716;51.556;5.080;2022-12-29T06:36:07;99328.56;;;10.47;100.00
36748;BME280;22716;51.556;5.080;2022-12-29T06:38:36;99332.16;;;10.45;100.00
36748;BME280;22716;51.556;5.080;2022-12-29T06:41:04;99324.28;;;10.45;100.00
36748;BME280;22716;51.556;5.080;2022-12-29T06:43:36;99337.22;;;10.49;100.00
36748;BME280;22716;51.556;5.080;2022-12-29T06:46:05;99342.53;;;10.48;100.00
36748;BME280;22716;51.556;5.080;2022-12-29T06:48:34;99343.31;;;10.50;100.00
36748;BME280;22716;51.556;5.080;2022-12-29T06:51:03;99349.41;;;10.50;100.00
36748;BME280;22716;51.556;5.080;2022-12-29T06:53:32;99357.31;;;10.49;100.00
36748;BME280;22716;51.556;5.080;2022-12-29T06:56:01;99345.28;;;10.43;100.00
36748;BME280;22716;51.556;5.080;2022-12-29T06:58:30;99352.06;;;10.49;100.00
36748;BME280;22716;51.556;5.080;2022-12-29T07:01:02;99349.53;;;10.47;100.00
36748;BME280;22716;51.556;5.080;2022-12-29T07:03:30;99365.13;;;10.50;100.00
36748;BME280;22716;51.556;5.080;2022-12-29T07:06:00;99364.16;;;10.53;100.00
36748;BME280;22716;51.556;5.080;2022-12-29T07:08:28;99354.69;;;10.49;100.00
36748;BME280;22716;51.556;5.080;2022-12-29T07:10:57;99359.94;;;10.49;100.00
36748;BME280;22716;51.556;5.080;2022-12-29T07:13:26;99377.28;;;10.51;100.00
36748;BME280;22716;51.556;5.080;2022-12-29T07:15:54;99371.47;;;10.43;100.00
36748;BME280;22716;51.556;5.080;2022-12-29T07:18:26;99396.69;;;10.46;100.00
36748;BME280;22716;51.556;5.080;2022-12-29T07:20:54;99388.03;;;10.44;100.00
36748;BME280;22716;51.556;5.080;2022-12-29T07:23:23;99409.84;;;10.44;100.00
36748;BME280;22716;51.556;5.080;2022-12-29T07:25:59;99397.72;;;10.42;100.00
36748;BME280;22716;51.556;5.080;2022-12-29T07:28:28;99388.16;;;10.39;100.00
36748;BME280;22716;51.556;5.080;2022-12-29T07:30:58;99394.25;;;10.40;100.00
36748;BME280;22716;51.556;5.080;2022-12-29T07:33:32;99378.81;;;10.32;100.00
36748;BME280;22716;51.556;5.080;2022-12-29T07:36:01;99401.13;;;10.44;100.00
36748;BME280;22716;51.556;5.080;2022-12-29T07:38:30;99400.25;;;10.43;100.00
36748;BME280;22716;51.556;5.080;2022-12-29T07:40:59;99403.66;;;10.47;100.00
36748;BME280;22716;51.556;5.080;2022-12-29T07:43:27;99413.22;;;10.48;100.00
36748;BME280;22716;51.556;5.080;2022-12-29T07:45:56;99414.97;;;10.47;100.00
36748;BME280;22716;51.556;5.080;2022-12-29T07:48:25;99413.34;;;10.43;100.00
36748;BME280;22716;51.556;5.080;2022-12-29T07:50:56;99435.16;;;10.44;100.00
36748;BME280;22716;51.556;5.080;2022-12-29T07:53:25;99430.16;;;10.36;100.00
36748;BME280;22716;51.556;5.080;2022-12-29T07:55:54;99424.97;;;10.35;100.00
36748;BME280;22716;51.556;5.080;2022-12-29T07:58:23;99422.53;;;10.30;100.00
36748;BME280;22716;51.556;5.080;2022-12-29T08:00:53;99401.22;;;10.13;100.00
36748;BME280;22716;51.556;5.080;2022-12-29T08:03:22;99444.47;;;10.26;100.00
36748;BME280;22716;51.556;5.080;2022-12-29T08:05:52;99431.47;;;10.23;100.00
36748;BME280;22716;51.556;5.080;2022-12-29T08:08:23;99432.22;;;10.27;100.00
36748;BME280;22716;51.556;5.080;2022-12-29T08:10:52;99421.97;;;10.19;100.00
36748;BME280;22716;51.556;5.080;2022-12-29T08:13:21;99437.59;;;10.22;100.00
36748;BME280;22716;51.556;5.080;2022-12-29T08:15:49;99434.09;;;10.23;100.00
36748;BME280;22716;51.556;5.080;2022-12-29T08:18:18;99410.63;;;10.20;100.00
36748;BME280;22716;51.556;5.080;2022-12-29T08:20:47;99402.78;;;10.20;100.00
36748;BME280;22716;51.556;5.080;2022-12-29T08:23:16;99410.25;;;10.31;100.00
36748;BME280;22716;51.556;5.080;2022-12-29T08:25:55;99404.03;;;10.35;100.00
36748;BME280;22716;51.556;5.080;2022-12-29T08:28:24;99411.59;;;10.44;100.00
36748;BME280;22716;51.556;5.080;2022-12-29T08:30:53;99392.69;;;10.34;100.00
36748;BME280;22716;51.556;5.080;2022-12-29T08:33:22;99403.78;;;10.42;100.00
36748;BME280;22716;51.556;5.080;2022-12-29T08:35:51;99412.16;;;10.53;100.00
36748;BME280;22716;51.556;5.080;2022-12-29T08:38:20;99413.75;;;10.57;100.00
36748;BME280;22716;51.556;5.080;2022-12-29T08:40:51;99411.03;;;10.60;100.00
36748;BME280;22716;51.556;5.080;2022-12-29T08:43:20;99417.19;;;10.59;100.00
36748;BME280;22716;51.556;5.080;2022-12-29T08:45:49;99414.53;;;10.61;100.00
36748;BME280;22716;51.556;5.080;2022-12-29T08:48:18;99417.94;;;10.63;100.00
36748;BME280;22716;51.556;5.080;2022-12-29T08:50:48;99417.00;;;10.65;100.00
36748;BME280;22716;51.556;5.080;2022-12-29T08:53:17;99429.28;;;10.63;100.00
36748;BME280;22716;51.556;5.080;2022-12-29T08:55:54;99435.16;;;10.70;100.00
36748;BME280;22716;51.556;5.080;2022-12-29T08:58:26;99433.50;;;10.67;100.00
36748;BME280;22716;51.556;5.080;2022-12-29T09:00:56;99441.28;;;10.71;100.00
36748;BME280;22716;51.556;5.080;2022-12-29T09:03:26;99450.03;;;10.69;100.00
36748;BME280;22716;51.556;5.080;2022-12-29T09:05:56;99445.66;;;10.70;100.00
36748;BME280;22716;51.556;5.080;2022-12-29T09:08:24;99448.31;;;10.68;100.00
36748;BME280;22716;51.556;5.080;2022-12-29T09:10:54;99443.13;;;10.67;100.00
36748;BME280;22716;51.556;5.080;2022-12-29T09:13:25;99453.59;;;10.67;100.00
36748;BME280;22716;51.556;5.080;2022-12-29T09:15:58;99470.19;;;10.67;100.00
36748;BME280;22716;51.556;5.080;2022-12-29T09:18:26;99464.53;;;10.53;100.00
36748;BME280;22716;51.556;5.080;2022-12-29T09:20:56;99467.16;;;10.53;100.00
36748;BME280;22716;51.556;5.080;2022-12-29T09:23:26;99475.03;;;10.53;100.00
36748;BME280;22716;51.556;5.080;2022-12-29T09:25:55;99476.81;;;10.51;100.00
36748;BME280;22716;51.556;5.080;2022-12-29T09:28:27;99480.53;;;10.44;100.00
36748;BME280;22716;51.556;5.080;2022-12-29T09:30:56;99485.97;;;10.38;100.00
36748;BME280;22716;51.556;5.080;2022-12-29T09:33:26;99504.41;;;10.34;100.00
36748;BME280;22716;51.556;5.080;2022-12-29T09:35:57;99506.31;;;10.29;100.00
36748;BME280;22716;51.556;5.080;2022-12-29T09:38:27;99511.81;;;10.21;100.00
36748;BME280;22716;51.556;5.080;2022-12-29T09:41:06;99512.72;;;10.19;100.00
36748;BME280;22716;51.556;5.080;2022-12-29T09:43:54;99522.63;;;10.07;100.00
36748;BME280;22716;51.556;5.080;2022-12-29T09:46:29;99534.09;;;10.03;100.00
36748;BME280;22716;51.556;5.080;2022-12-29T09:49:09;99538.75;;;9.92;100.00
36748;BME280;22716;51.556;5.080;2022-12-29T09:51:45;99554.53;;;9.91;100.00
36748;BME280;22716;51.556;5.080;2022-12-29T09:54:24;99559.06;;;9.84;100.00
36748;BME280;22716;51.556;5.080;2022-12-29T09:56:56;99560.72;;;9.87;100.00
36748;BME280;22716;51.556;5.080;2022-12-29T09:59:37;99563.44;;;9.84;100.00
36748;BME280;22716;51.556;5.080;2022-12-29T10:02:21;99564.38;;;9.81;100.00
36748;BME280;22716;51.556;5.080;2022-12-29T10:04:52;99583.69;;;9.77;100.00
36748;BME280;22716;51.556;5.080;2022-12-29T10:07:30;99576.75;;;9.75;100.00
36748;BME280;22716;51.556;5.080;2022-12-29T10:10:14;99598.63;;;9.72;100.00
36748;BME280;22716;51.556;5.080;2022-12-29T10:12:55;99583.97;;;9.67;100.00
36748;BME280;22716;51.556;5.080;2022-12-29T10:15:40;99598.63;;;9.72;100.00
36748;BME280;22716;51.556;5.080;2022-12-29T10:18:20;99593.56;;;9.66;100.00
36748;BME280;22716;51.556;5.080;2022-12-29T10:20:55;99595.28;;;9.67;100.00
36748;BME280;22716;51.556;5.080;2022-12-29T10:23:29;99610.91;;;9.70;100.00
36748;BME280;22716;51.556;5.080;2022-12-29T10:26:01;99614.47;;;9.66;100.00
36748;BME280;22716;51.556;5.080;2022-12-29T10:28:35;99624.91;;;9.68;100.00
36748;BME280;22716;51.556;5.080;2022-12-29T10:31:16;99617.06;;;9.68;100.00
36748;BME280;22716;51.556;5.080;2022-12-29T10:33:49;99629.19;;;9.70;100.00
36748;BME280;22716;51.556;5.080;2022-12-29T10:36:27;99630.09;;;9.69;100.00
36748;BME280;22716;51.556;5.080;2022-12-29T10:39:05;99631.75;;;9.73;100.00
36748;BME280;22716;51.556;5.080;2022-12-29T10:41:41;99644.84;;;9.72;100.00
36748;BME280;22716;51.556;5.080;2022-12-29T10:44:15;99659.53;;;9.77;100.00
36748;BME280;22716;51.556;5.080;2022-12-29T10:46:56;99651.72;;;9.76;100.00
36748;BME280;22716;51.556;5.080;2022-12-29T10:49:28;99658.63;;;9.78;100.00
36748;BME280;22716;51.556;5.080;2022-12-29T10:52:02;99640.56;;;9.69;100.00
36748;BME280;22716;51.556;5.080;2022-12-29T10:54:36;99660.22;;;9.84;100.00
36748;BME280;22716;51.556;5.080;2022-12-29T10:57:10;99657.41;;;9.91;100.00
36748;BME280;22716;51.556;5.080;2022-12-29T10:59:41;99667.72;;;9.97;100.00
36748;BME280;22716;51.556;5.080;2022-12-29T11:02:27;99675.53;;;9.99;100.00
36748;BME280;22716;51.556;5.080;2022-12-29T11:05:07;99667.69;;;9.99;100.00
36748;BME280;22716;51.556;5.080;2022-12-29T11:07:39;99664.16;;;10.00;100.00
36748;BME280;22716;51.556;5.080;2022-12-29T11:10:20;99675.28;;;10.08;100.00
36748;BME280;22716;51.556;5.080;2022-12-29T11:12:57;99672.59;;;10.11;100.00
36748;BME280;22716;51.556;5.080;2022-12-29T11:15:27;99671.00;;;10.05;100.00
36748;BME280;22716;51.556;5.080;2022-12-29T11:17:59;99676.16;;;10.08;100.00
36748;BME280;22716;51.556;5.080;2022-12-29T11:20:33;99685.66;;;10.12;100.00
36748;BME280;22716;51.556;5.080;2022-12-29T11:23:05;99687.28;;;10.17;100.00
36748;BME280;22716;51.556;5.080;2022-12-29T11:25:34;99700.34;;;10.18;100.00
36748;BME280;22716;51.556;5.080;2022-12-29T11:28:13;99691.59;;;10.19;100.00
36748;BME280;22716;51.556;5.080;2022-12-29T11:30:43;99694.28;;;10.16;100.00
36748;BME280;22716;51.556;5.080;2022-12-29T11:33:17;99680.44;;;10.11;100.00
36748;BME280;22716;51.556;5.080;2022-12-29T11:35:45;99703.81;;;10.19;100.00
36748;BME280;22716;51.556;5.080;2022-12-29T11:38:19;99702.06;;;10.19;100.00
36748;BME280;22716;51.556;5.080;2022-12-29T11:40:49;99703.00;;;10.17;100.00
36748;BME280;22716;51.556;5.080;2022-12-29T11:43:23;99706.09;;;10.31;100.00
36748;BME280;22716;51.556;5.080;2022-12-29T11:45:55;99706.06;;;10.32;100.00
36748;BME280;22716;51.556;5.080;2022-12-29T11:48:29;99697.19;;;10.38;100.00
36748;BME280;22716;51.556;5.080;2022-12-29T11:51:00;99708.47;;;10.40;100.00
36748;BME280;22716;51.556;5.080;2022-12-29T11:53:37;99716.31;;;10.40;100.00
36748;BME280;22716;51.556;5.080;2022-12-29T11:56:09;99725.13;;;10.37;100.00
36748;BME280;22716;51.556;5.080;2022-12-29T11:58:39;99717.31;;;10.36;100.00
36748;BME280;22716;51.556;5.080;2022-12-29T12:01:16;99722.41;;;10.40;100.00
36748;BME280;22716;51.556;5.080;2022-12-29T12:03:52;99718.94;;;10.40;100.00
36748;BME280;22716;51.556;5.080;2022-12-29T12:06:24;99719.88;;;10.37;100.00
36748;BME280;22716;51.556;5.080;2022-12-29T12:08:57;99704.34;;;10.31;100.00
36748;BME280;22716;51.556;5.080;2022-12-29T12:11:32;99719.03;;;10.37;100.00
36748;BME280;22716;51.556;5.080;2022-12-29T12:14:12;99724.97;;;10.43;100.00
36748;BME280;22716;51.556;5.080;2022-12-29T12:16:50;99706.84;;;10.36;100.00
36748;BME280;22716;51.556;5.080;2022-12-29T12:19:31;99725.84;;;10.42;100.00
36748;BME280;22716;51.556;5.080;2022-12-29T12:22:04;99731.94;;;10.43;100.00
36748;BME280;22716;51.556;5.080;2022-12-29T12:24:41;99723.41;;;10.36;100.00
36748;BME280;22716;51.556;5.080;2022-12-29T12:27:14;99729.56;;;10.35;100.00
36748;BME280;22716;51.556;5.080;2022-12-29T12:29:52;99727.09;;;10.29;100.00
36748;BME280;22716;51.556;5.080;2022-12-29T12:32:29;99715.06;;;10.22;100.00
36748;BME280;22716;51.556;5.080;2022-12-29T12:35:15;99716.66;;;10.28;100.00
36748;BME280;22716;51.556;5.080;2022-12-29T12:37:53;99721.88;;;10.28;100.00
36748;BME280;22716;51.556;5.080;2022-12-29T12:43:41;99743.03;;;10.52;100.00
36748;BME280;22716;51.556;5.080;2022-12-29T12:46:25;99735.97;;;10.56;100.00
36748;BME280;22716;51.556;5.080;2022-12-29T12:49:11;99723.81;;;10.53;100.00
36748;BME280;22716;51.556;5.080;2022-12-29T12:51:51;99732.41;;;10.58;100.00
36748;BME280;22716;51.556;5.080;2022-12-29T12:54:38;99747.97;;;10.63;100.00
36748;BME280;22716;51.556;5.080;2022-12-29T12:57:17;99747.25;;;10.58;100.00
36748;BME280;22716;51.556;5.080;2022-12-29T12:59:55;99748.03;;;10.61;100.00
36748;BME280;22716;51.556;5.080;2022-12-29T13:02:37;99748.28;;;10.52;100.00
36748;BME280;22716;51.556;5.080;2022-12-29T13:05:29;99759.88;;;10.42;100.00
36748;BME280;22716;51.556;5.080;2022-12-29T13:08:21;99771.59;;;10.29;100.00
36748;BME280;22716;51.556;5.080;2022-12-29T13:10:58;99773.59;;;10.20;100.00
36748;BME280;22716;51.556;5.080;2022-12-29T13:13:42;99772.03;;;10.11;100.00
36748;BME280;22716;51.556;5.080;2022-12-29T13:16:23;99771.31;;;10.06;100.00
36748;BME280;22716;51.556;5.080;2022-12-29T13:18:59;99777.31;;;10.09;100.00
36748;BME280;22716;51.556;5.080;2022-12-29T13:21:47;99760.91;;;10.03;100.00
36748;BME280;22716;51.556;5.080;2022-12-29T13:24:28;99763.69;;;9.97;100.00